Time;durP1;ratioP1;P1;durP2;ratioP2;P2;SDS_P1;SDS_P2;PMS_P1;PMS_P2;Temp;Humidity;BMP_temperature;BMP_pressure;BME280_temperature;BME280_humidity;BME280_pressure;Samples;Min_cycle;Max_cycle;Signal;HPM_P1;HPM_P2
2022/10/20 00:02:07;;;;;;;18.40;10.90;;;11.20;99.90;;;;;;5073384;28;20396;-76
2022/10/20 00:04:33;;;;;;;18.58;12.13;;;11.30;99.90;;;;;;5073518;28;20392;-76
2022/10/20 00:06:59;;;;;;;16.35;10.48;;;11.40;99.90;;;;;;5073395;28;20790;-76
2022/10/20 00:09:25;;;;;;;18.93;11.70;;;11.40;99.90;;;;;;5055354;28;20380;-76
2022/10/20 00:11:50;;;;;;;20.95;12.60;;;11.40;98.80;;;;;;5073180;28;20383;-76
2022/10/20 00:14:16;;;;;;;22.17;11.88;;;11.30;99.90;;;;;;5073472;28;20902;-75
2022/10/20 00:16:41;;;;;;;16.23;11.10;;;11.40;99.90;;;;;;5073547;28;20399;-75
2022/10/20 00:19:08;;;;;;;19.60;11.13;;;11.50;99.90;;;;;;5073248;28;20620;-75
2022/10/20 00:21:33;;;;;;;17.33;11.02;;;11.50;99.60;;;;;;5072772;28;20399;-75
2022/10/20 00:24:00;;;;;;;19.83;11.40;;;11.40;98.90;;;;;;5073301;28;20384;-75
2022/10/20 00:26:27;;;;;;;19.73;11.80;;;11.40;99.90;;;;;;5073303;28;20479;-75
2022/10/20 00:28:54;;;;;;;16.83;11.10;;;11.30;99.90;;;;;;5074514;28;20385;-76
2022/10/20 00:31:21;;;;;;;18.27;11.65;;;11.30;99.90;;;;;;5073117;28;20383;-75
2022/10/20 00:33:47;;;;;;;17.58;11.00;;;11.30;99.60;;;;;;5073549;28;20736;-75
2022/10/20 00:36:15;;;;;;;23.93;12.30;;;11.30;99.90;;;;;;5073092;28;20415;-75
2022/10/20 00:38:42;;;;;;;18.92;12.70;;;11.30;99.90;;;;;;5073369;28;20384;-75
2022/10/20 00:41:07;;;;;;;21.45;11.80;;;11.40;99.90;;;;;;5072547;28;20388;-74
2022/10/20 00:44:00;;;;;;;18.48;11.30;;;11.30;99.60;;;;;;5072986;28;20938;-74
2022/10/20 00:46:36;;;;;;;20.70;11.88;;;11.30;99.90;;;;;;5070072;28;20420;-74
2022/10/20 00:49:20;;;;;;;17.42;11.50;;;11.20;99.40;;;;;;5072107;28;20381;-73
2022/10/20 00:51:46;;;;;;;20.00;11.80;;;11.20;99.20;;;;;;5072571;28;20380;-74
2022/10/20 00:54:20;;;;;;;17.02;10.85;;;11.30;99.90;;;;;;5072398;28;20411;-75
2022/10/20 00:56:47;;;;;;;21.27;12.23;;;11.30;98.90;;;;;;5072529;28;20763;-74
2022/10/20 00:59:17;;;;;;;22.70;12.25;;;11.10;99.80;;;;;;5072251;28;20466;-74
2022/10/20 01:01:43;;;;;;;19.77;11.93;;;11.10;99.90;;;;;;5054055;28;20403;-74
2022/10/20 01:04:09;;;;;;;24.10;12.47;;;11.10;99.90;;;;;;5072311;28;20860;-74
2022/10/20 01:06:35;;;;;;;19.52;11.98;;;11.20;99.90;;;;;;5070988;28;20391;-74
2022/10/20 01:09:00;;;;;;;19.33;11.57;;;11.10;99.90;;;;;;5071588;28;20726;-75
2022/10/20 01:11:53;;;;;;;23.85;12.73;;;11.10;99.90;;;;;;5071958;28;20395;-75
2022/10/20 01:14:53;;;;;;;19.15;12.38;;;11.20;99.90;;;;;;5073322;28;20828;-75
2022/10/20 01:17:56;;;;;;;16.35;11.73;;;11.30;99.90;;;;;;5078102;28;20504;-76
2022/10/20 01:20:59;;;;;;;18.67;10.90;;;11.40;99.90;;;;;;5052126;28;20418;-75
2022/10/20 01:24:00;;;;;;;22.05;11.65;;;11.40;99.50;;;;;;5067204;28;20392;-75
2022/10/20 01:26:34;;;;;;;19.58;12.80;;;11.40;99.90;;;;;;5070335;28;20441;-75
2022/10/20 01:29:40;;;;;;;22.67;13.90;;;11.50;99.30;;;;;;5071337;28;20401;-75
2022/10/20 01:32:11;;;;;;;23.52;12.85;;;11.50;95.90;;;;;;5071625;28;20371;-75
2022/10/20 01:34:41;;;;;;;22.37;12.90;;;11.40;95.70;;;;;;5071316;28;20392;-75
2022/10/20 01:37:12;;;;;;;19.65;11.23;;;11.40;95.00;;;;;;5071766;28;20744;-75
2022/10/20 01:39:57;;;;;;;21.60;14.40;;;11.40;94.30;;;;;;5071647;28;20387;-75
2022/10/20 01:42:29;;;;;;;17.73;11.65;;;11.40;96.90;;;;;;5072700;28;20498;-75
2022/10/20 01:45:00;;;;;;;18.80;11.07;;;11.50;94.50;;;;;;5072475;28;20375;-75
2022/10/20 01:47:28;;;;;;;17.83;11.48;;;11.60;90.20;;;;;;5071527;28;20581;-75
2022/10/20 01:49:56;;;;;;;19.83;12.45;;;11.50;91.40;;;;;;5071706;28;20857;-74
2022/10/20 01:52:22;;;;;;;18.63;11.30;;;11.60;92.70;;;;;;5071117;28;20759;-74
2022/10/20 01:54:48;;;;;;;20.30;12.38;;;11.50;90.20;;;;;;5071598;28;20415;-74
2022/10/20 01:57:44;;;;;;;19.95;11.77;;;11.50;91.20;;;;;;5072717;28;20415;-75
2022/10/20 02:00:12;;;;;;;18.10;11.20;;;11.60;89.50;;;;;;5071313;28;20384;-75
2022/10/20 02:02:56;;;;;;;19.52;11.48;;;11.50;89.40;;;;;;5071631;28;20914;-75
2022/10/20 02:05:57;;;;;;;20.55;11.57;;;11.50;89.80;;;;;;5071550;28;20382;-75
2022/10/20 02:08:36;;;;;;;19.80;10.60;;;11.60;89.70;;;;;;5071580;28;20486;-74
2022/10/20 02:11:04;;;;;;;20.17;11.35;;;11.60;88.90;;;;;;5071890;28;20861;-75
2022/10/20 02:13:31;;;;;;;19.08;11.52;;;11.60;88.00;;;;;;5071511;28;20744;-74
2022/10/20 02:16:00;;;;;;;18.10;11.60;;;11.70;86.70;;;;;;5072099;28;20861;-75
2022/10/20 02:18:33;;;;;;;20.17;11.93;;;11.60;88.70;;;;;;5071496;28;20446;-74
2022/10/20 02:21:02;;;;;;;19.80;11.48;;;11.60;88.00;;;;;;5071385;28;20475;-74
2022/10/20 02:23:30;;;;;;;22.48;11.07;;;11.60;87.90;;;;;;5071267;28;20391;-74
2022/10/20 02:25:58;;;;;;;20.48;11.93;;;11.50;88.50;;;;;;5054137;28;20386;-74
2022/10/20 02:28:25;;;;;;;18.02;11.02;;;11.60;86.00;;;;;;5074079;28;20400;-74
2022/10/20 02:30:51;;;;;;;22.92;12.05;;;11.50;85.60;;;;;;5077629;28;20380;-75
2022/10/20 02:33:18;;;;;;;26.10;11.70;;;11.50;86.60;;;;;;5072148;28;20413;-74
2022/10/20 02:35:53;;;;;;;22.40;12.75;;;11.50;86.50;;;;;;5071614;28;20375;-74
2022/10/20 02:38:19;;;;;;;18.65;11.55;;;11.70;87.20;;;;;;5072054;28;20384;-75
2022/10/20 02:40:45;;;;;;;20.75;12.93;;;11.60;85.00;;;;;;5070914;28;20551;-74
2022/10/20 02:43:11;;;;;;;21.13;11.57;;;11.70;86.70;;;;;;5070745;28;20403;-74
2022/10/20 02:45:37;;;;;;;20.40;12.27;;;11.70;84.40;;;;;;5071186;28;20773;-74
2022/10/20 02:48:03;;;;;;;20.53;11.63;;;11.60;86.20;;;;;;5070605;28;20380;-74
2022/10/20 02:50:28;;;;;;;19.87;11.20;;;11.60;86.00;;;;;;5070688;28;20391;-74
2022/10/20 02:52:54;;;;;;;15.80;11.03;;;11.50;87.50;;;;;;5070590;28;20437;-74
2022/10/20 02:55:19;;;;;;;24.40;12.07;;;11.50;88.40;;;;;;5070846;28;20391;-74
2022/10/20 02:57:45;;;;;;;19.92;11.30;;;11.40;89.20;;;;;;5071010;28;20466;-75
2022/10/20 03:00:11;;;;;;;18.45;11.80;;;11.40;89.80;;;;;;5070696;28;20399;-74
2022/10/20 03:02:36;;;;;;;18.92;11.63;;;11.40;89.80;;;;;;5070409;28;20399;-74
2022/10/20 03:05:02;;;;;;;18.60;11.77;;;11.40;91.20;;;;;;5052744;28;20795;-74
2022/10/20 03:07:28;;;;;;;20.35;12.15;;;11.40;90.10;;;;;;5070785;28;20418;-74
2022/10/20 03:09:53;;;;;;;19.60;11.20;;;11.40;91.50;;;;;;5070697;28;20884;-74
2022/10/20 03:12:19;;;;;;;16.73;11.15;;;11.50;90.70;;;;;;5073288;28;20447;-74
2022/10/20 03:14:44;;;;;;;17.15;10.95;;;11.60;88.40;;;;;;5074468;28;20410;-75
2022/10/20 03:17:13;;;;;;;16.83;10.90;;;11.50;87.50;;;;;;5074150;28;20486;-74
2022/10/20 03:19:40;;;;;;;21.30;11.77;;;11.40;88.60;;;;;;5074591;28;20479;-74
2022/10/20 03:22:05;;;;;;;15.13;10.60;;;11.50;90.00;;;;;;5074029;28;20445;-75
2022/10/20 03:24:31;;;;;;;14.40;10.87;;;11.50;86.90;;;;;;5074354;28;20399;-74
2022/10/20 03:26:56;;;;;;;22.87;11.33;;;11.50;87.50;;;;;;5074074;28;20416;-75
2022/10/20 03:29:22;;;;;;;18.20;11.10;;;11.50;86.50;;;;;;5074624;28;20423;-74
2022/10/20 03:31:48;;;;;;;22.95;12.40;;;11.70;85.50;;;;;;5073782;28;20392;-74
2022/10/20 03:34:13;;;;;;;18.35;10.38;;;11.70;86.70;;;;;;5073934;28;20945;-74
2022/10/20 03:36:39;;;;;;;15.63;10.43;;;11.70;84.10;;;;;;5056091;28;20534;-74
2022/10/20 03:39:04;;;;;;;14.73;10.67;;;11.70;84.70;;;;;;5075404;28;20768;-74
2022/10/20 03:41:30;;;;;;;19.10;11.17;;;11.80;82.20;;;;;;5074534;28;20415;-75
2022/10/20 03:43:55;;;;;;;19.47;10.80;;;11.80;82.40;;;;;;5074932;28;20394;-74
2022/10/20 03:46:21;;;;;;;18.73;11.10;;;11.70;83.90;;;;;;5074593;28;20384;-75
2022/10/20 03:48:47;;;;;;;16.85;11.40;;;11.70;84.40;;;;;;5056668;28;20912;-75
2022/10/20 03:51:13;;;;;;;16.60;10.20;;;11.70;85.50;;;;;;5074578;28;20384;-75
2022/10/20 03:53:39;;;;;;;16.60;10.20;;;11.70;84.50;;;;;;5074041;28;20903;-74
2022/10/20 03:56:09;;;;;;;14.47;10.07;;;11.70;85.20;;;;;;5073662;28;20412;-74
2022/10/20 03:58:35;;;;;;;22.10;10.40;;;11.70;82.90;;;;;;5073804;28;20872;-74
2022/10/20 04:01:02;;;;;;;17.20;10.57;;;11.70;82.90;;;;;;5073463;28;20552;-74
2022/10/20 04:03:27;;;;;;;17.48;10.80;;;11.80;83.40;;;;;;5055382;28;20411;-74
2022/10/20 04:05:53;;;;;;;18.17;10.93;;;11.70;84.00;;;;;;5073218;28;20384;-74
2022/10/20 04:08:18;;;;;;;12.23;9.67;;;11.70;86.30;;;;;;5073475;28;20380;-74
2022/10/20 04:10:44;;;;;;;21.02;10.85;;;11.70;84.50;;;;;;5073349;28;20390;-74
2022/10/20 04:13:09;;;;;;;15.75;10.20;;;11.70;85.60;;;;;;5073017;28;20736;-75
2022/10/20 04:15:35;;;;;;;15.50;10.53;;;11.70;85.00;;;;;;5073603;28;20388;-74
2022/10/20 04:18:00;;;;;;;15.80;10.80;;;11.70;83.50;;;;;;5073764;28;20399;-74
2022/10/20 04:20:26;;;;;;;16.20;10.87;;;11.70;84.90;;;;;;5075143;28;20475;-74
2022/10/20 04:22:52;;;;;;;18.35;10.38;;;11.70;84.60;;;;;;5054029;28;20404;-75
2022/10/20 04:25:17;;;;;;;15.52;10.60;;;11.70;84.10;;;;;;5073090;28;20403;-74
2022/10/20 04:27:43;;;;;;;20.63;10.93;;;11.70;82.60;;;;;;5072643;28;20391;-74
2022/10/20 04:30:09;;;;;;;17.80;10.05;;;11.70;82.90;;;;;;5072577;28;20864;-74
2022/10/20 04:32:35;;;;;;;16.98;9.50;;;11.70;85.00;;;;;;5072611;28;20392;-74
2022/10/20 04:35:00;;;;;;;16.17;10.75;;;11.70;84.50;;;;;;5072713;28;20436;-75
2022/10/20 04:37:26;;;;;;;17.33;10.73;;;11.70;83.20;;;;;;5072609;28;20390;-74
2022/10/20 04:39:52;;;;;;;17.85;9.50;;;11.70;83.50;;;;;;5073440;28;20387;-74
2022/10/20 04:42:18;;;;;;;17.10;10.17;;;11.80;84.00;;;;;;5056075;28;20404;-76
2022/10/20 04:44:45;;;;;;;16.00;10.20;;;11.80;83.90;;;;;;5074690;28;20436;-74
2022/10/20 04:47:10;;;;;;;15.98;10.10;;;11.80;84.80;;;;;;5074592;28;20387;-75
2022/10/20 04:49:36;;;;;;;12.45;9.75;;;12.00;81.00;;;;;;5075397;28;20380;-75
2022/10/20 04:52:02;;;;;;;14.50;10.80;;;12.00;80.50;;;;;;5072940;28;20481;-75
2022/10/20 04:54:28;;;;;;;15.10;9.73;;;12.00;79.30;;;;;;5073245;28;20701;-75
2022/10/20 04:56:54;;;;;;;16.63;9.00;;;12.00;78.40;;;;;;5073132;28;20387;-75
2022/10/20 04:59:20;;;;;;;17.20;9.70;;;12.10;78.60;;;;;;5055181;28;20394;-75
2022/10/20 05:01:45;;;;;;;16.27;9.70;;;12.10;78.00;;;;;;5072676;28;20395;-75
2022/10/20 05:04:11;;;;;;;19.07;9.87;;;12.10;76.20;;;;;;5072599;28;20765;-75
2022/10/20 05:06:37;;;;;;;14.00;9.63;;;12.10;76.30;;;;;;5074003;28;20943;-76
2022/10/20 05:09:05;;;;;;;15.35;9.48;;;12.20;76.10;;;;;;5080756;28;20379;-75
2022/10/20 05:11:34;;;;;;;13.30;9.10;;;12.20;75.80;;;;;;5076371;28;20894;-75
2022/10/20 05:13:59;;;;;;;14.18;9.57;;;12.20;75.00;;;;;;5072561;28;20682;-75
2022/10/20 05:16:25;;;;;;;18.55;9.90;;;12.20;77.10;;;;;;5071684;28;20405;-75
2022/10/20 05:18:52;;;;;;;13.15;9.00;;;12.20;75.60;;;;;;5071941;28;20388;-75
2022/10/20 05:21:20;;;;;;;13.70;9.00;;;12.30;74.80;;;;;;5071515;28;20380;-75
2022/10/20 05:23:46;;;;;;;15.60;9.40;;;12.20;74.70;;;;;;5071892;28;20383;-75
2022/10/20 05:26:17;;;;;;;12.88;8.95;;;12.20;75.00;;;;;;5071533;28;20391;-74
2022/10/20 05:28:48;;;;;;;15.65;9.43;;;12.20;74.80;;;;;;5072500;28;20383;-76
2022/10/20 05:31:15;;;;;;;11.88;8.77;;;12.20;73.80;;;;;;5072003;28;20383;-75
2022/10/20 05:33:45;;;;;;;13.45;9.85;;;12.10;74.60;;;;;;5073429;28;20757;-75
2022/10/20 05:36:13;;;;;;;12.40;9.23;;;12.10;75.60;;;;;;5073124;28;20489;-75
2022/10/20 05:38:39;;;;;;;14.55;9.50;;;12.20;77.10;;;;;;5072834;28;20379;-76
2022/10/20 05:41:11;;;;;;;17.15;9.75;;;12.20;75.30;;;;;;5074965;28;20387;-75
2022/10/20 05:43:37;;;;;;;14.90;10.10;;;12.20;76.70;;;;;;5075999;28;20444;-75
2022/10/20 05:46:03;;;;;;;14.77;9.20;;;12.20;75.90;;;;;;5071198;28;20421;-75
2022/10/20 05:48:29;;;;;;;14.27;9.48;;;12.20;74.10;;;;;;5054132;28;20376;-75
2022/10/20 05:50:55;;;;;;;13.30;9.40;;;12.20;73.80;;;;;;5072899;28;20387;-75
2022/10/20 05:53:20;;;;;;;17.97;9.60;;;12.20;73.30;;;;;;5071096;28;20403;-75
2022/10/20 05:55:46;;;;;;;12.87;10.20;;;12.30;73.60;;;;;;5071257;28;20371;-74
2022/10/20 05:58:11;;;;;;;13.93;9.03;;;12.20;73.90;;;;;;5071085;28;20379;-74
2022/10/20 06:00:41;;;;;;;18.08;9.70;;;12.20;73.90;;;;;;5071788;28;20375;-75
2022/10/20 06:03:07;;;;;;;15.15;9.02;;;12.30;72.70;;;;;;5072963;28;20431;-74
2022/10/20 06:05:33;;;;;;;10.23;9.00;;;12.30;72.30;;;;;;5054659;28;20792;-74
2022/10/20 06:07:59;;;;;;;17.70;9.90;;;12.40;71.50;;;;;;5071928;28;20455;-74
2022/10/20 06:10:25;;;;;;;11.35;8.75;;;12.40;70.30;;;;;;5070909;28;20380;-75
2022/10/20 06:12:50;;;;;;;17.10;9.35;;;12.30;70.40;;;;;;5071184;28;20741;-75
2022/10/20 06:15:16;;;;;;;29.50;10.00;;;12.40;70.70;;;;;;5071029;28;20384;-75
2022/10/20 06:17:41;;;;;;;19.37;9.67;;;12.40;71.90;;;;;;5076821;22;20427;-72
2022/10/20 06:20:07;;;;;;;11.90;9.13;;;12.50;70.10;;;;;;5054001;28;20394;-72
2022/10/20 06:22:33;;;;;;;14.43;8.13;;;12.50;69.50;;;;;;5053961;28;20403;-74
2022/10/20 06:24:58;;;;;;;15.30;9.43;;;12.50;69.60;;;;;;5048243;28;20430;-73
2022/10/20 06:27:24;;;;;;;19.67;10.37;;;12.50;70.10;;;;;;5031941;28;20709;-73
2022/10/20 06:29:49;;;;;;;24.83;10.40;;;12.60;71.50;;;;;;5031844;28;20387;-74
2022/10/20 06:32:17;;;;;;;15.35;9.35;;;12.60;69.60;;;;;;5031750;28;20445;-73
2022/10/20 06:34:43;;;;;;;14.93;9.90;;;12.60;68.10;;;;;;5031477;28;20588;-73
2022/10/20 06:37:09;;;;;;;13.77;9.60;;;12.70;67.70;;;;;;5041679;28;20395;-73
2022/10/20 06:39:35;;;;;;;14.45;9.45;;;12.70;68.50;;;;;;5050156;28;20463;-74
2022/10/20 06:42:02;;;;;;;15.60;8.57;;;12.70;66.60;;;;;;5047828;28;20403;-74
2022/10/20 06:44:28;;;;;;;14.32;9.50;;;12.90;66.60;;;;;;5038522;28;20445;-74
2022/10/20 06:46:53;;;;;;;12.73;9.00;;;12.90;65.40;;;;;;5034362;28;20387;-74
2022/10/20 06:49:19;;;;;;;17.08;9.73;;;13.00;65.00;;;;;;5035408;28;20763;-74
2022/10/20 06:51:45;;;;;;;12.57;9.70;;;12.90;64.60;;;;;;5034256;28;20395;-74
2022/10/20 06:54:11;;;;;;;17.67;10.27;;;13.00;63.30;;;;;;5034795;28;20461;-73
2022/10/20 06:56:38;;;;;;;13.30;9.05;;;13.10;63.20;;;;;;5034993;28;20485;-74
2022/10/20 06:59:04;;;;;;;16.02;9.60;;;13.10;62.70;;;;;;5034027;28;20486;-74
2022/10/20 07:01:35;;;;;;;17.25;9.95;;;13.10;62.90;;;;;;5033724;28;20415;-73
2022/10/20 07:04:04;;;;;;;14.98;8.90;;;13.10;62.70;;;;;;5036019;28;20391;-74
2022/10/20 07:06:40;;;;;;;13.25;9.68;;;13.20;61.40;;;;;;5035578;28;20521;-74
2022/10/20 07:09:07;;;;;;;14.63;9.20;;;13.30;61.70;;;;;;5035003;28;20383;-75
2022/10/20 07:11:33;;;;;;;12.32;9.93;;;13.30;61.30;;;;;;5035262;28;20799;-73
2022/10/20 07:14:00;;;;;;;17.90;9.40;;;13.40;60.50;;;;;;5034917;28;20867;-74
2022/10/20 07:16:28;;;;;;;17.50;10.07;;;13.40;61.10;;;;;;5033625;28;20386;-73
2022/10/20 07:18:56;;;;;;;19.00;10.07;;;13.50;60.30;;;;;;5035070;28;20418;-72
2022/10/20 07:21:22;;;;;;;14.70;9.60;;;13.50;60.50;;;;;;5033619;28;20419;-73
2022/10/20 07:23:49;;;;;;;14.60;10.00;;;13.60;58.50;;;;;;5034272;28;20395;-73
2022/10/20 07:26:20;;;;;;;16.35;10.27;;;13.70;58.50;;;;;;5036732;28;20554;-74
2022/10/20 07:28:48;;;;;;;21.35;10.98;;;13.80;58.00;;;;;;5036505;28;20379;-74
2022/10/20 07:31:29;;;;;;;17.42;10.98;;;13.80;57.50;;;;;;5033647;28;20391;-74
2022/10/20 07:33:57;;;;;;;22.92;10.52;;;13.90;56.90;;;;;;5034451;28;20390;-74
2022/10/20 07:36:26;;;;;;;16.92;10.30;;;14.00;56.80;;;;;;5035760;28;20390;-75
2022/10/20 07:38:54;;;;;;;16.83;10.75;;;14.10;55.30;;;;;;5035316;28;20413;-74
2022/10/20 07:41:20;;;;;;;19.02;10.43;;;14.10;54.60;;;;;;5038238;28;20387;-73
2022/10/20 07:43:46;;;;;;;15.63;11.00;;;14.20;55.40;;;;;;5045614;28;20854;-73
2022/10/20 07:46:12;;;;;;;22.15;11.10;;;14.30;55.00;;;;;;5046466;28;20398;-74
2022/10/20 07:48:38;;;;;;;17.55;10.63;;;14.30;55.20;;;;;;5041719;28;20391;-73
2022/10/20 07:51:25;;;;;;;21.17;10.63;;;14.40;53.20;;;;;;5041653;28;20390;-73
2022/10/20 07:53:52;;;;;;;17.37;10.50;;;14.40;52.90;;;;;;5039933;28;20887;-73
2022/10/20 07:56:19;;;;;;;14.48;10.68;;;14.40;54.40;;;;;;5039804;28;20733;-73
2022/10/20 07:58:45;;;;;;;16.63;10.68;;;14.50;53.20;;;;;;5036693;28;20382;-74
2022/10/20 08:01:11;;;;;;;18.05;11.45;;;14.50;52.30;;;;;;5034389;28;20769;-74
2022/10/20 08:03:37;;;;;;;20.88;11.77;;;14.60;53.00;;;;;;5034676;28;20407;-74
2022/10/20 08:06:04;;;;;;;20.77;11.60;;;14.60;53.00;;;;;;5035108;28;20392;-74
2022/10/20 08:08:30;;;;;;;17.40;11.10;;;14.70;52.40;;;;;;5034409;28;20526;-74
2022/10/20 08:10:57;;;;;;;17.73;10.77;;;14.80;51.10;;;;;;5034360;28;20434;-74
2022/10/20 08:13:24;;;;;;;15.55;11.38;;;14.80;51.00;;;;;;5034425;28;20913;-74
2022/10/20 08:15:49;;;;;;;15.52;10.05;;;14.80;50.80;;;;;;5038140;28;20383;-74
2022/10/20 08:18:15;;;;;;;18.33;10.83;;;14.90;50.30;;;;;;5048532;28;20402;-75
2022/10/20 08:20:40;;;;;;;14.50;10.47;;;15.10;51.60;;;;;;5050899;28;20391;-74
2022/10/20 08:23:06;;;;;;;16.13;10.68;;;15.10;49.90;;;;;;5048987;28;20870;-73
2022/10/20 08:25:32;;;;;;;17.80;10.93;;;15.10;49.00;;;;;;5044008;28;20759;-73
2022/10/20 08:27:57;;;;;;;17.53;11.03;;;15.20;50.00;;;;;;5042996;28;20443;-73
2022/10/20 08:30:23;;;;;;;18.80;11.30;;;15.20;50.10;;;;;;5043014;28;20406;-75
2022/10/20 08:32:52;;;;;;;18.05;11.52;;;15.30;48.20;;;;;;5042485;28;20387;-73
2022/10/20 08:35:19;;;;;;;18.48;10.52;;;15.30;47.60;;;;;;5046069;28;20486;-72
2022/10/20 08:37:44;;;;;;;18.98;10.98;;;15.40;48.00;;;;;;5040928;28;20375;-73
2022/10/20 08:40:23;;;;;;;17.23;11.60;;;15.30;47.30;;;;;;5042354;28;20402;-74
2022/10/20 08:42:49;;;;;;;17.42;10.57;;;15.30;47.60;;;;;;5044357;28;20402;-73
2022/10/20 08:45:21;;;;;;;22.60;10.90;;;15.40;48.40;;;;;;5036458;28;20387;-75
2022/10/20 08:47:54;;;;;;;25.58;11.30;;;15.40;46.90;;;;;;5036337;28;20395;-73
2022/10/20 08:50:20;;;;;;;20.23;11.00;;;15.50;47.10;;;;;;5034554;28;20407;-75
2022/10/20 08:52:51;;;;;;;19.45;11.38;;;15.60;46.70;;;;;;5034858;28;20395;-75
2022/10/20 08:55:31;;;;;;;19.73;11.15;;;15.70;47.00;;;;;;5036134;28;20732;-75
2022/10/20 08:58:21;;;;;;;14.80;10.38;;;15.70;46.20;;;;;;5033095;28;20449;-74
2022/10/20 09:00:49;;;;;;;16.95;11.32;;;15.70;46.60;;;;;;5033416;28;20907;-73
2022/10/20 09:03:22;;;;;;;20.30;11.23;;;15.60;46.30;;;;;;5033854;28;20410;-73
2022/10/20 09:05:52;;;;;;;22.50;10.80;;;15.70;46.80;;;;;;5034523;28;20469;-73
2022/10/20 09:08:20;;;;;;;18.95;11.48;;;15.70;45.30;;;;;;5033831;28;20406;-76
2022/10/20 09:10:52;;;;;;;19.38;10.65;;;15.70;47.10;;;;;;5039524;28;20864;-73
2022/10/20 09:13:30;;;;;;;18.25;10.75;;;15.80;46.50;;;;;;5038518;28;20409;-74
2022/10/20 09:16:11;;;;;;;15.95;10.30;;;15.90;45.30;;;;;;5036442;28;20470;-74
2022/10/20 09:18:37;;;;;;;20.13;10.48;;;16.00;44.90;;;;;;5047807;28;20453;-74
2022/10/20 09:21:14;;;;;;;16.45;10.70;;;16.00;44.60;;;;;;5050252;28;20403;-73
2022/10/20 09:23:45;;;;;;;15.50;10.33;;;16.00;44.50;;;;;;5049338;28;20399;-73
2022/10/20 09:26:15;;;;;;;18.50;10.80;;;15.90;44.50;;;;;;5051897;28;20554;-74
2022/10/20 09:28:40;;;;;;;16.13;10.48;;;15.90;45.30;;;;;;5036915;28;20466;-74
2022/10/20 09:31:30;;;;;;;19.13;11.97;;;15.90;46.40;;;;;;5038508;28;20418;-74
2022/10/20 09:33:56;;;;;;;16.58;10.90;;;15.80;45.80;;;;;;5043011;28;20383;-75
2022/10/20 09:36:26;;;;;;;23.27;10.70;;;15.80;45.50;;;;;;5039879;28;20422;-73
2022/10/20 09:38:52;;;;;;;18.38;11.15;;;16.00;45.40;;;;;;5039831;28;20474;-76
2022/10/20 09:41:22;;;;;;;17.20;10.90;;;16.10;44.90;;;;;;5040421;28;20426;-74
2022/10/20 09:43:57;;;;;;;16.83;10.88;;;16.10;44.60;;;;;;5039709;28;20411;-72
2022/10/20 09:46:26;;;;;;;15.20;10.10;;;16.20;44.60;;;;;;5042461;28;20395;-73
2022/10/20 09:48:53;;;;;;;20.90;10.50;;;16.20;44.90;;;;;;5038536;28;20394;-73
2022/10/20 09:51:27;;;;;;;14.10;10.75;;;16.20;43.70;;;;;;5032323;28;20379;-73
2022/10/20 09:54:06;;;;;;;17.88;11.10;;;16.20;45.00;;;;;;5031828;28;20387;-74
2022/10/20 09:56:39;;;;;;;17.75;9.93;;;16.20;44.70;;;;;;5032395;28;20445;-74
2022/10/20 09:59:30;;;;;;;23.90;10.77;;;16.20;44.00;;;;;;5030753;28;20429;-74
2022/10/20 10:01:59;;;;;;;16.95;10.20;;;16.10;44.50;;;;;;5031305;28;20403;-75
2022/10/20 10:04:37;;;;;;;15.65;10.93;;;16.10;44.60;;;;;;5031449;28;20379;-74
2022/10/20 10:07:23;;;;;;;17.48;11.20;;;16.10;45.90;;;;;;5033008;28;20425;-74
2022/10/20 10:10:00;;;;;;;18.55;10.82;;;16.10;48.90;;;;;;5031038;28;20477;-74
2022/10/20 10:12:28;;;;;;;19.17;11.02;;;16.20;47.70;;;;;;5032306;28;20398;-74
2022/10/20 10:15:04;;;;;;;19.45;11.38;;;16.20;47.70;;;;;;5030935;28;20449;-73
2022/10/20 10:17:42;;;;;;;15.43;10.57;;;16.30;47.00;;;;;;5032339;28;20407;-74
2022/10/20 10:20:11;;;;;;;14.48;10.50;;;16.30;48.10;;;;;;5032370;28;20395;-74
2022/10/20 10:22:38;;;;;;;17.60;11.43;;;16.20;49.30;;;;;;5033955;28;20410;-73
2022/10/20 10:25:05;;;;;;;14.48;10.55;;;16.00;48.10;;;;;;5036707;28;20864;-73
2022/10/20 10:27:33;;;;;;;15.48;11.50;;;16.00;49.20;;;;;;5032057;28;20379;-74
2022/10/20 10:30:30;;;;;;;19.38;10.88;;;16.00;50.00;;;;;;5030628;28;20879;-74
2022/10/20 10:32:56;;;;;;;13.40;10.90;;;16.10;50.30;;;;;;5023860;28;20490;-73
2022/10/20 10:35:27;;;;;;;20.77;11.10;;;16.30;49.10;;;;;;5032680;28;20894;-74
2022/10/20 10:37:54;;;;;;;17.98;11.00;;;16.50;47.80;;;;;;5032650;28;20875;-76
2022/10/20 10:40:38;;;;;;;19.13;10.80;;;16.60;47.10;;;;;;5033532;28;20393;-74
2022/10/20 10:43:28;;;;;;;17.75;11.27;;;16.80;45.00;;;;;;5034236;28;20403;-74
2022/10/20 10:46:19;;;;;;;16.67;11.18;;;17.00;43.70;;;;;;5038181;28;20474;-76
2022/10/20 10:49:16;;;;;;;18.40;10.68;;;17.10;44.70;;;;;;5037193;28;20474;-75
2022/10/20 10:51:57;;;;;;;17.85;11.05;;;17.30;44.00;;;;;;5038246;28;20383;-74
2022/10/20 10:54:37;;;;;;;19.53;11.00;;;17.20;43.00;;;;;;5038579;28;20433;-74
2022/10/20 10:57:31;;;;;;;16.90;11.20;;;17.20;43.40;;;;;;5036736;28;20710;-74
2022/10/20 11:00:06;;;;;;;15.95;10.45;;;17.00;44.30;;;;;;5040728;28;20466;-73
2022/10/20 11:02:37;;;;;;;18.27;10.95;;;16.80;45.50;;;;;;5038503;28;20428;-73
2022/10/20 11:05:21;;;;;;;18.08;11.40;;;16.60;46.20;;;;;;5049000;28;20394;-73
2022/10/20 11:08:10;;;;;;;16.95;11.15;;;16.60;47.80;;;;;;5047831;28;20463;-73
2022/10/20 11:10:39;;;;;;;19.63;10.93;;;16.50;49.30;;;;;;5038417;28;20430;-74
2022/10/20 11:13:12;;;;;;;16.52;11.32;;;16.50;49.10;;;;;;5031890;28;20399;-74
2022/10/20 11:16:19;;;;;;;15.63;11.10;;;16.40;50.00;;;;;;5030994;28;20391;-74
2022/10/20 11:19:12;;;;;;;17.33;11.63;;;16.40;51.20;;;;;;5013900;28;20399;-74
2022/10/20 11:22:25;;;;;;;18.20;11.70;;;16.30;53.40;;;;;;5041809;28;20402;-74
2022/10/20 11:25:12;;;;;;;19.70;12.70;;;16.10;56.20;;;;;;5000113;28;20390;-73
2022/10/20 11:27:38;;;;;;;19.90;12.70;;;16.10;57.60;;;;;;5040378;28;20401;-73
2022/10/20 11:30:15;;;;;;;22.70;13.00;;;15.90;58.40;;;;;;5041206;28;20860;-73
2022/10/20 11:33:04;;;;;;;22.85;13.48;;;15.80;60.90;;;;;;5045910;28;20844;-74
2022/10/20 11:35:44;;;;;;;22.80;14.03;;;15.70;62.70;;;;;;5049760;28;20383;-73
2022/10/20 11:38:40;;;;;;;22.27;14.70;;;15.60;66.30;;;;;;5037426;28;20387;-74
2022/10/20 11:41:27;;;;;;;25.13;15.10;;;15.40;67.70;;;;;;5038134;28;20391;-74
2022/10/20 11:43:56;;;;;;;26.88;16.50;;;15.50;67.30;;;;;;5035191;28;20482;-73
2022/10/20 11:46:44;;;;;;;25.57;15.87;;;15.30;70.40;;;;;;5036472;28;20379;-73
2022/10/20 11:49:13;;;;;;;23.88;15.80;;;15.20;72.70;;;;;;5037523;28;20390;-74
2022/10/20 11:51:59;;;;;;;24.60;15.90;;;15.20;73.10;;;;;;5036988;28;20437;-74
2022/10/20 11:54:38;;;;;;;23.55;16.20;;;15.10;74.70;;;;;;5038779;28;20784;-74
2022/10/20 11:57:04;;;;;;;25.33;17.38;;;15.00;74.80;;;;;;5036641;28;20379;-74
2022/10/20 11:59:48;;;;;;;25.43;16.80;;;15.00;77.50;;;;;;5044036;28;20377;-74
2022/10/20 12:02:51;;;;;;;24.10;17.50;;;15.00;79.60;;;;;;5044738;28;20395;-74
2022/10/20 12:05:25;;;;;;;25.20;16.95;;;15.00;78.50;;;;;;5039581;28;20387;-75
2022/10/20 12:08:13;;;;;;;26.90;17.77;;;15.00;80.70;;;;;;5040343;28;20379;-73
2022/10/20 12:11:16;;;;;;;22.60;17.10;;;15.10;80.00;;;;;;5038038;28;20808;-73
2022/10/20 12:14:15;;;;;;;27.33;16.90;;;15.00;80.40;;;;;;5038437;28;20390;-73
2022/10/20 12:16:53;;;;;;;25.70;18.23;;;15.00;81.90;;;;;;5035236;28;20418;-73
2022/10/20 12:19:24;;;;;;;23.85;17.52;;;14.90;84.40;;;;;;5041570;28;20438;-72
2022/10/20 12:22:25;;;;;;;28.00;17.13;;;14.90;85.10;;;;;;5038525;28;20462;-75
2022/10/20 12:24:53;;;;;;;28.00;16.80;;;14.90;85.50;;;;;;5038313;28;20409;-74
2022/10/20 12:27:26;;;;;;;27.10;17.48;;;14.90;86.40;;;;;;5037064;28;20398;-73
2022/10/20 12:29:51;;;;;;;28.42;17.60;;;14.80;89.20;;;;;;5036373;28;20410;-75
2022/10/20 12:32:44;;;;;;;27.47;19.03;;;14.80;87.30;;;;;;5033634;28;20486;-72
2022/10/20 12:35:09;;;;;;;26.35;17.83;;;14.80;90.10;;;;;;5034717;28;20398;-73
2022/10/20 12:37:37;;;;;;;31.00;18.40;;;14.80;90.70;;;;;;5040276;28;20383;-74
2022/10/20 12:40:05;;;;;;;28.27;18.40;;;14.70;91.60;;;;;;5040276;28;20395;-74
2022/10/20 12:42:36;;;;;;;25.73;17.63;;;14.80;92.10;;;;;;5046208;28;20414;-74
2022/10/20 12:45:22;;;;;;;27.88;17.70;;;15.00;91.50;;;;;;5045412;28;20379;-73
2022/10/20 12:47:54;;;;;;;24.90;17.33;;;15.30;87.00;;;;;;5044231;28;20394;-77
2022/10/20 12:50:44;;;;;;;25.23;17.65;;;15.50;84.50;;;;;;5037534;28;20451;-74